Time;durP1;ratioP1;P1;durP2;ratioP2;P2;SDS_P1;SDS_P2;PMS_P1;PMS_P2;Temp;Humidity;BMP_temperature;BMP_pressure;BME280_temperature;BME280_humidity;BME280_pressure;Samples;Min_cycle;Max_cycle;Signal;HPM_P1;HPM_P2
2021/06/28 00:00:30;;;;;;;10.20;9.20;;;20.40;99.90;;;;;;4933486;29;20846;-82
2021/06/28 00:02:58;;;;;;;10.67;9.67;;;20.40;99.90;;;;;;4933523;29;20577;-81
2021/06/28 00:05:26;;;;;;;10.87;9.77;;;20.40;99.90;;;;;;4901341;29;20470;-83
2021/06/28 00:07:53;;;;;;;11.87;10.50;;;20.40;99.90;;;;;;4934183;29;20763;-80
2021/06/28 00:10:22;;;;;;;11.80;10.57;;;20.30;99.90;;;;;;4903411;29;20792;-82
2021/06/28 00:12:51;;;;;;;11.67;10.47;;;20.30;99.90;;;;;;4935389;29;20446;-82
2021/06/28 00:15:20;;;;;;;11.27;10.20;;;20.30;99.90;;;;;;4918700;29;20515;-82
2021/06/28 00:17:49;;;;;;;11.33;10.13;;;20.30;99.90;;;;;;4922720;29;20514;-82
2021/06/28 00:20:17;;;;;;;12.23;10.93;;;20.30;99.90;;;;;;4939524;29;20442;-84
2021/06/28 00:22:45;;;;;;;12.07;10.73;;;20.20;99.90;;;;;;4916897;29;20486;-82
2021/06/28 00:25:15;;;;;;;12.20;11.00;;;20.20;99.90;;;;;;4900918;29;20489;-84
2021/06/28 00:27:44;;;;;;;11.60;10.50;;;20.20;99.90;;;;;;4933357;29;20964;-81
2021/06/28 00:30:13;;;;;;;12.10;10.80;;;20.20;99.90;;;;;;4934143;29;20861;-81
2021/06/28 00:32:41;;;;;;;13.10;10.90;;;20.20;99.90;;;;;;4918735;29;20450;-81
2021/06/28 00:35:12;;;;;;;11.13;9.43;;;20.20;99.90;;;;;;4918433;29;20470;-82
2021/06/28 00:37:40;;;;;;;12.00;10.40;;;20.20;99.90;;;;;;4935298;29;20458;-80
2021/06/28 00:40:09;;;;;;;14.17;11.37;;;20.20;99.90;;;;;;4939586;29;20452;-84
2021/06/28 00:42:36;;;;;;;12.70;10.83;;;20.10;99.90;;;;;;4944954;29;20473;-84
2021/06/28 00:45:16;;;;;;;12.07;10.63;;;20.10;99.90;;;;;;4952215;29;21051;-78
2021/06/28 00:47:43;;;;;;;13.80;11.83;;;20.10;99.90;;;;;;4952012;29;20931;-82
2021/06/28 00:50:13;;;;;;;10.90;9.80;;;20.10;99.90;;;;;;4952377;29;20449;-81
2021/06/28 00:52:41;;;;;;;13.13;10.80;;;20.10;99.90;;;;;;4891517;29;20992;-80
2021/06/28 00:55:10;;;;;;;11.23;10.13;;;20.10;99.90;;;;;;4899439;29;20468;-82
2021/06/28 00:57:38;;;;;;;12.60;11.30;;;20.00;99.90;;;;;;4899356;29;20466;-81
2021/06/28 01:00:08;;;;;;;12.60;11.40;;;20.00;99.90;;;;;;4916309;29;20907;-80
2021/06/28 01:02:35;;;;;;;12.60;11.30;;;20.00;99.90;;;;;;4922920;29;20481;-80
2021/06/28 01:05:04;;;;;;;12.40;11.20;;;20.00;99.90;;;;;;4935256;29;20479;-81
2021/06/28 01:07:32;;;;;;;13.80;12.17;;;19.90;99.90;;;;;;4934821;29;20456;-79
2021/06/28 01:09:59;;;;;;;13.13;11.73;;;19.90;99.90;;;;;;4936856;29;20450;-80
2021/06/28 01:12:26;;;;;;;13.23;10.77;;;19.90;99.90;;;;;;4936792;29;20537;-82
2021/06/28 01:14:54;;;;;;;12.53;11.23;;;19.90;99.90;;;;;;4937887;29;20466;-81
2021/06/28 01:17:22;;;;;;;12.23;10.93;;;19.90;99.90;;;;;;4938634;29;20457;-78
2021/06/28 01:19:57;;;;;;;14.63;12.00;;;19.90;99.90;;;;;;4938450;29;20525;-81
2021/06/28 01:22:26;;;;;;;15.40;11.77;;;19.80;99.90;;;;;;4922853;29;20481;-82
2021/06/28 01:24:57;;;;;;;14.17;11.93;;;19.80;99.90;;;;;;4943478;29;20449;-79
2021/06/28 01:27:24;;;;;;;14.60;12.83;;;19.80;99.90;;;;;;4951591;29;20461;-83
2021/06/28 01:29:52;;;;;;;16.63;13.30;;;19.80;99.90;;;;;;4955294;29;20477;-80
2021/06/28 01:32:19;;;;;;;14.87;12.23;;;19.80;99.90;;;;;;4955558;29;20447;-81
2021/06/28 01:34:46;;;;;;;13.73;11.67;;;19.80;99.90;;;;;;4955977;29;20460;-80
2021/06/28 01:37:21;;;;;;;14.87;11.90;;;19.80;99.90;;;;;;4938279;29;20466;-80
2021/06/28 01:39:49;;;;;;;12.60;11.30;;;19.80;99.90;;;;;;4938304;29;20629;-80
2021/06/28 01:42:18;;;;;;;13.77;11.40;;;19.80;99.90;;;;;;4921387;29;20482;-81
2021/06/28 01:44:44;;;;;;;15.40;12.53;;;19.80;99.90;;;;;;4938942;29;20454;-81
2021/06/28 01:47:12;;;;;;;12.97;11.60;;;19.70;99.90;;;;;;4943177;29;20434;-80
2021/06/28 01:49:39;;;;;;;11.83;10.53;;;19.70;99.90;;;;;;4937091;29;20557;-80
2021/06/28 01:52:06;;;;;;;13.80;12.33;;;19.70;99.90;;;;;;4935672;29;20439;-83
2021/06/28 01:54:34;;;;;;;13.83;10.87;;;19.70;99.90;;;;;;4935885;29;20446;-83
2021/06/28 01:57:01;;;;;;;13.50;12.10;;;19.70;99.90;;;;;;4935657;29;20553;-83
2021/06/28 01:59:31;;;;;;;11.80;10.60;;;19.70;99.90;;;;;;4920858;29;20438;-84
2021/06/28 02:01:59;;;;;;;12.63;11.13;;;19.70;99.90;;;;;;4937884;29;20474;-84
2021/06/28 02:04:26;;;;;;;12.17;10.87;;;19.60;99.90;;;;;;4937757;29;20929;-82
2021/06/28 02:06:54;;;;;;;14.63;11.43;;;19.60;99.90;;;;;;4938958;29;20466;-82
2021/06/28 02:09:21;;;;;;;12.63;11.33;;;19.60;99.90;;;;;;4942304;29;20921;-81
2021/06/28 02:11:49;;;;;;;13.30;10.93;;;19.60;99.90;;;;;;4919312;29;20443;-81
2021/06/28 02:14:16;;;;;;;13.50;12.10;;;19.60;99.90;;;;;;4935478;29;20461;-80
2021/06/28 02:16:46;;;;;;;13.00;11.00;;;19.60;99.90;;;;;;4935594;29;20445;-79
2021/06/28 02:19:13;;;;;;;12.93;11.00;;;19.50;99.90;;;;;;4934767;29;20454;-78
2021/06/28 02:21:40;;;;;;;12.67;10.80;;;19.50;99.90;;;;;;4937218;29;20516;-83
2021/06/28 02:24:07;;;;;;;13.90;11.37;;;19.50;99.90;;;;;;4920412;29;20482;-82
2021/06/28 02:26:35;;;;;;;12.83;10.80;;;19.50;99.90;;;;;;4937307;29;20462;-83
2021/06/28 02:29:02;;;;;;;12.60;10.93;;;19.50;99.90;;;;;;4938957;29;20560;-79
2021/06/28 02:31:29;;;;;;;12.77;11.00;;;19.50;99.90;;;;;;4925414;29;20457;-83
2021/06/28 02:33:58;;;;;;;12.07;10.77;;;19.40;99.90;;;;;;4935487;29;20541;-80
2021/06/28 02:36:27;;;;;;;14.70;12.40;;;19.40;99.90;;;;;;4934864;29;20473;-80
2021/06/28 02:38:55;;;;;;;12.50;11.20;;;19.40;99.90;;;;;;4918305;29;20446;-82
2021/06/28 02:41:22;;;;;;;12.37;11.17;;;19.40;99.90;;;;;;4935313;29;20464;-81
2021/06/28 02:43:52;;;;;;;12.03;10.83;;;19.40;99.90;;;;;;4920133;29;20854;-82
2021/06/28 02:46:20;;;;;;;12.57;9.70;;;19.40;99.90;;;;;;4920013;29;20976;-83
2021/06/28 02:48:47;;;;;;;12.63;11.07;;;19.40;99.90;;;;;;4920123;29;20456;-82
2021/06/28 02:51:17;;;;;;;12.40;11.17;;;19.40;99.90;;;;;;4938782;29;20447;-81
2021/06/28 02:53:44;;;;;;;13.43;10.83;;;19.30;99.90;;;;;;4924598;29;20928;-81
2021/06/28 02:56:15;;;;;;;11.40;10.20;;;19.30;99.90;;;;;;4917945;29;20466;-82
2021/06/28 02:58:43;;;;;;;11.87;10.67;;;19.30;99.90;;;;;;4934703;29;20486;-82
2021/06/28 03:01:11;;;;;;;13.70;10.50;;;19.30;99.90;;;;;;4935169;29;20461;-83
2021/06/28 03:03:38;;;;;;;13.03;11.67;;;19.20;99.90;;;;;;4934816;29;20493;-83
2021/06/28 03:06:05;;;;;;;14.00;12.60;;;19.30;99.90;;;;;;4936477;29;20856;-79
2021/06/28 03:08:34;;;;;;;12.73;11.43;;;19.30;99.90;;;;;;4919938;29;20440;-79
2021/06/28 03:11:02;;;;;;;18.20;13.07;;;19.30;99.90;;;;;;4936451;29;20933;-80
2021/06/28 03:13:29;;;;;;;14.67;13.13;;;19.30;99.90;;;;;;4939026;29;20451;-82
2021/06/28 03:15:57;;;;;;;15.00;13.50;;;19.20;99.90;;;;;;4941452;29;20462;-83
2021/06/28 03:18:25;;;;;;;13.90;12.10;;;19.20;99.90;;;;;;4934108;29;20467;-80
2021/06/28 03:20:52;;;;;;;14.20;12.70;;;19.30;99.90;;;;;;4917617;29;20444;-80
2021/06/28 03:23:19;;;;;;;12.83;11.50;;;19.30;99.90;;;;;;4934332;29;20474;-80
2021/06/28 03:25:48;;;;;;;16.33;13.03;;;19.30;99.90;;;;;;4914492;29;20479;-81
2021/06/28 03:28:15;;;;;;;17.77;13.93;;;19.20;99.90;;;;;;4917181;29;20478;-81
2021/06/28 03:30:42;;;;;;;15.67;13.13;;;19.30;99.90;;;;;;4917179;29;20447;-79
2021/06/28 03:33:09;;;;;;;15.00;13.40;;;19.20;99.90;;;;;;4916983;29;20468;-82
2021/06/28 03:35:36;;;;;;;13.97;12.53;;;19.20;99.90;;;;;;4929019;29;20462;-80
2021/06/28 03:38:04;;;;;;;15.17;13.53;;;19.20;99.90;;;;;;4923950;29;20806;-81
2021/06/28 03:40:32;;;;;;;15.60;13.20;;;19.30;99.90;;;;;;4933674;29;20425;-78
2021/06/28 03:43:03;;;;;;;16.27;13.90;;;19.20;99.90;;;;;;4933894;29;20571;-80
2021/06/28 03:45:30;;;;;;;14.60;13.20;;;19.20;99.90;;;;;;4934070;29;20984;-82
2021/06/28 03:47:58;;;;;;;17.63;15.00;;;19.30;99.90;;;;;;4934394;29;20501;-81
2021/06/28 03:50:25;;;;;;;16.40;14.10;;;19.20;99.90;;;;;;4903451;29;20948;-82
2021/06/28 03:52:52;;;;;;;16.03;14.43;;;19.30;99.90;;;;;;4935912;29;20453;-81
2021/06/28 03:55:19;;;;;;;16.80;13.20;;;19.20;99.90;;;;;;4935831;29;20448;-83
2021/06/28 03:57:46;;;;;;;15.40;13.20;;;19.20;99.90;;;;;;4938440;29;20416;-83
2021/06/28 04:00:17;;;;;;;14.50;12.60;;;19.20;99.90;;;;;;4939830;29;20509;-80
2021/06/28 04:02:45;;;;;;;15.20;13.33;;;19.20;99.90;;;;;;4916052;29;20460;-82
2021/06/28 04:05:16;;;;;;;12.63;11.33;;;19.30;99.90;;;;;;4916666;29;20445;-80
2021/06/28 04:07:43;;;;;;;18.00;12.97;;;19.30;99.90;;;;;;4917128;29;20473;-80
2021/06/28 04:10:11;;;;;;;16.07;14.37;;;19.20;99.90;;;;;;4914481;29;20977;-79
2021/06/28 04:12:39;;;;;;;16.80;14.77;;;19.30;99.90;;;;;;4916492;29;20817;-82
2021/06/28 04:15:10;;;;;;;19.43;15.07;;;19.30;99.90;;;;;;4916580;29;20445;-80
2021/06/28 04:17:39;;;;;;;15.87;14.27;;;19.30;99.90;;;;;;4916571;29;20542;-81
2021/06/28 04:20:08;;;;;;;15.87;14.27;;;19.30;99.90;;;;;;4932432;29;20537;-80
2021/06/28 04:22:35;;;;;;;14.90;13.37;;;19.30;99.90;;;;;;4938958;29;20478;-79
2021/06/28 04:25:03;;;;;;;16.03;14.43;;;19.30;99.90;;;;;;4932895;29;20445;-83
2021/06/28 04:27:30;;;;;;;16.60;14.40;;;19.40;99.90;;;;;;4933475;29;20790;-80
2021/06/28 04:29:57;;;;;;;21.10;17.37;;;19.40;99.90;;;;;;4933323;29;20484;-81
2021/06/28 04:32:24;;;;;;;18.07;16.17;;;19.50;99.90;;;;;;4934038;29;20466;-81
2021/06/28 04:34:55;;;;;;;17.60;15.80;;;19.50;99.90;;;;;;4935251;29;20881;-80
2021/06/28 04:37:21;;;;;;;17.67;15.80;;;19.60;99.90;;;;;;4935665;29;20461;-81
2021/06/28 04:39:48;;;;;;;18.87;15.07;;;19.60;99.90;;;;;;4935227;29;20453;-81
2021/06/28 04:42:15;;;;;;;18.57;16.67;;;19.70;99.90;;;;;;4941713;28;20771;-81
2021/06/28 04:44:42;;;;;;;17.80;15.90;;;19.70;99.90;;;;;;4948990;29;20795;-82
2021/06/28 04:47:09;;;;;;;16.30;14.60;;;19.80;99.90;;;;;;4958396;29;20449;-82
2021/06/28 04:49:36;;;;;;;16.30;14.57;;;19.90;99.90;;;;;;4958452;28;20457;-82
2021/06/28 04:52:05;;;;;;;18.67;16.70;;;19.90;99.90;;;;;;4958685;29;20441;-83
2021/06/28 04:54:32;;;;;;;21.27;15.77;;;20.00;99.90;;;;;;4949935;28;20458;-83
2021/06/28 04:56:59;;;;;;;18.20;16.23;;;20.00;99.90;;;;;;4941631;29;20441;-82
2021/06/28 04:59:26;;;;;;;18.57;16.37;;;20.10;99.90;;;;;;4943500;29;20447;-81
2021/06/28 05:01:53;;;;;;;20.50;15.67;;;20.10;99.90;;;;;;4941588;29;20457;-83
2021/06/28 05:04:20;;;;;;;20.10;16.70;;;20.10;99.90;;;;;;4945322;29;20481;-82
2021/06/28 05:06:48;;;;;;;15.80;14.13;;;20.20;99.90;;;;;;4948920;28;21097;-82
2021/06/28 05:09:16;;;;;;;15.93;14.37;;;20.30;99.90;;;;;;4941382;29;20465;-81
2021/06/28 05:11:44;;;;;;;15.73;12.77;;;20.40;99.90;;;;;;4958695;29;20437;-81
2021/06/28 05:14:12;;;;;;;16.63;14.97;;;20.50;99.90;;;;;;4958555;29;20452;-80
2021/06/28 05:16:39;;;;;;;16.50;14.80;;;20.70;99.90;;;;;;4949112;29;20524;-80
2021/06/28 05:19:06;;;;;;;17.27;15.47;;;20.80;99.90;;;;;;4941190;29;20450;-82
2021/06/28 05:21:32;;;;;;;18.37;15.83;;;20.80;99.90;;;;;;4941087;29;20450;-82
2021/06/28 05:23:59;;;;;;;15.63;14.03;;;21.00;99.90;;;;;;4941326;29;20840;-79
2021/06/28 05:26:28;;;;;;;18.13;14.60;;;21.00;99.90;;;;;;4944642;29;20982;-83
2021/06/28 05:28:55;;;;;;;18.07;14.23;;;21.10;99.90;;;;;;4949124;29;20473;-83
2021/06/28 05:31:22;;;;;;;16.70;14.97;;;21.20;99.90;;;;;;4958191;28;20471;-81
2021/06/28 05:33:48;;;;;;;17.00;14.70;;;21.30;99.90;;;;;;4958018;29;20951;-82
2021/06/28 05:36:15;;;;;;;15.80;14.30;;;21.40;99.90;;;;;;4958309;29;20480;-81
2021/06/28 05:38:42;;;;;;;17.27;15.43;;;21.50;99.90;;;;;;4948982;28;20468;-81
2021/06/28 05:41:09;;;;;;;21.70;15.03;;;21.60;99.90;;;;;;4941174;29;20461;-82
2021/06/28 05:43:37;;;;;;;17.43;15.73;;;21.70;99.90;;;;;;4941267;29;20898;-79
2021/06/28 05:46:04;;;;;;;17.13;15.33;;;21.70;99.90;;;;;;4941133;29;20470;-83
2021/06/28 05:48:31;;;;;;;17.30;15.43;;;21.80;99.90;;;;;;4944587;28;20450;-83
2021/06/28 05:50:58;;;;;;;16.57;14.87;;;21.90;99.90;;;;;;4943786;29;20442;-82
2021/06/28 05:53:25;;;;;;;17.27;14.60;;;22.00;99.90;;;;;;4937044;29;20943;-82
2021/06/28 05:55:52;;;;;;;17.60;15.80;;;22.10;99.90;;;;;;4935744;29;20475;-82
2021/06/28 05:58:24;;;;;;;16.47;14.97;;;22.10;99.90;;;;;;4930066;29;20474;-82
2021/06/28 06:00:52;;;;;;;15.50;14.00;;;22.20;99.90;;;;;;4923667;29;20579;-82
2021/06/28 06:03:19;;;;;;;15.87;14.27;;;22.20;99.90;;;;;;4942541;29;20482;-80
2021/06/28 06:05:46;;;;;;;15.23;13.47;;;22.30;99.90;;;;;;4938303;29;20557;-84
2021/06/28 06:08:13;;;;;;;15.40;13.83;;;22.30;99.90;;;;;;4935907;29;20453;-83
2021/06/28 06:10:39;;;;;;;13.67;12.30;;;22.40;99.90;;;;;;4935639;29;20450;-81
2021/06/28 06:13:06;;;;;;;14.97;13.43;;;22.50;99.90;;;;;;4935272;29;20447;-82
2021/06/28 06:15:34;;;;;;;16.60;14.90;;;22.50;99.90;;;;;;4916753;29;20499;-81
2021/06/28 06:18:02;;;;;;;16.87;15.17;;;22.60;99.90;;;;;;4918636;29;20970;-82
2021/06/28 06:20:29;;;;;;;16.90;15.20;;;22.60;99.90;;;;;;4918693;29;20483;-82
2021/06/28 06:22:56;;;;;;;15.90;14.40;;;22.70;99.90;;;;;;4919789;29;20447;-81
2021/06/28 06:25:23;;;;;;;17.20;13.53;;;22.70;99.90;;;;;;4942654;29;20458;-81
2021/06/28 06:27:50;;;;;;;16.73;15.00;;;22.70;99.90;;;;;;4949231;29;20464;-84
2021/06/28 06:30:17;;;;;;;14.90;13.47;;;22.70;99.90;;;;;;4954283;29;20508;-81
2021/06/28 06:32:44;;;;;;;13.83;12.43;;;22.70;99.90;;;;;;4954538;29;20936;-81
2021/06/28 06:35:13;;;;;;;14.70;13.17;;;22.60;99.90;;;;;;4954577;29;20832;-81
2021/06/28 06:37:40;;;;;;;16.57;12.87;;;22.70;99.90;;;;;;4939337;29;20463;-81
2021/06/28 06:40:08;;;;;;;12.60;11.37;;;22.80;99.90;;;;;;4937207;29;20473;-79
2021/06/28 06:42:35;;;;;;;12.10;11.00;;;22.80;99.90;;;;;;4920139;29;20451;-79
2021/06/28 06:45:03;;;;;;;12.30;11.20;;;22.80;99.90;;;;;;4937531;29;20578;-80
2021/06/28 06:47:30;;;;;;;13.57;10.53;;;22.80;99.90;;;;;;4941917;29;20442;-77
2021/06/28 06:49:57;;;;;;;12.03;10.80;;;22.70;99.90;;;;;;4949242;29;20453;-78
2021/06/28 06:52:25;;;;;;;10.73;9.73;;;22.70;99.90;;;;;;4954197;29;20450;-77
2021/06/28 06:54:52;;;;;;;10.80;9.77;;;22.60;99.90;;;;;;4954001;29;20452;-78
2021/06/28 06:57:20;;;;;;;12.67;11.30;;;22.60;99.90;;;;;;4936938;29;20947;-78
2021/06/28 06:59:46;;;;;;;13.17;10.93;;;22.60;99.90;;;;;;4938437;29;21022;-78
2021/06/28 07:02:13;;;;;;;13.43;11.67;;;22.50;99.90;;;;;;4936886;29;20541;-78
2021/06/28 07:04:40;;;;;;;12.33;11.07;;;22.50;99.90;;;;;;4936371;29;20823;-78
2021/06/28 07:07:09;;;;;;;13.33;11.57;;;22.40;99.90;;;;;;4937120;29;20446;-78
2021/06/28 07:09:37;;;;;;;12.90;11.70;;;22.40;99.90;;;;;;4941447;29;20478;-78
2021/06/28 07:12:05;;;;;;;18.90;11.80;;;22.40;99.90;;;;;;4936773;29;20447;-79
2021/06/28 07:14:31;;;;;;;13.00;11.60;;;22.30;99.90;;;;;;4934371;29;20964;-78
2021/06/28 07:16:58;;;;;;;13.70;12.40;;;22.30;99.90;;;;;;4934260;29;20992;-78
2021/06/28 07:19:25;;;;;;;16.03;12.00;;;22.30;99.90;;;;;;4934703;29;20497;-79
2021/06/28 07:21:52;;;;;;;11.97;10.73;;;22.40;99.90;;;;;;4935826;29;20825;-78
2021/06/28 07:24:19;;;;;;;13.50;11.20;;;22.60;99.90;;;;;;4936359;29;20482;-79
2021/06/28 07:26:47;;;;;;;13.20;11.90;;;22.70;99.90;;;;;;4936502;29;20785;-78
2021/06/28 07:29:14;;;;;;;12.10;10.90;;;22.80;99.90;;;;;;4936891;29;20485;-80
2021/06/28 07:31:42;;;;;;;10.97;9.87;;;22.90;99.90;;;;;;4941170;29;20450;-79
2021/06/28 07:34:09;;;;;;;10.43;9.50;;;23.20;99.90;;;;;;4948901;29;20450;-78
2021/06/28 07:36:36;;;;;;;9.23;8.43;;;23.80;99.90;;;;;;4936247;29;20472;-81
2021/06/28 07:39:04;;;;;;;9.57;8.57;;;24.30;99.90;;;;;;4953085;29;20449;-79
2021/06/28 07:41:32;;;;;;;8.90;8.20;;;25.10;99.90;;;;;;4953554;29;20500;-78
2021/06/28 07:44:02;;;;;;;8.90;8.20;;;25.80;99.90;;;;;;4936650;29;20486;-79
2021/06/28 07:46:29;;;;;;;8.53;7.63;;;26.50;99.90;;;;;;4935972;29;20470;-79
2021/06/28 07:48:56;;;;;;;8.43;7.63;;;27.20;99.90;;;;;;4935733;29;20450;-79
2021/06/28 07:51:23;;;;;;;8.13;7.30;;;28.00;99.90;;;;;;4936709;29;20533;-79
2021/06/28 07:53:50;;;;;;;8.07;7.37;;;28.70;99.90;;;;;;4940966;29;20444;-77
2021/06/28 07:56:18;;;;;;;9.27;8.30;;;29.40;99.90;;;;;;4931779;29;20577;-78
2021/06/28 07:58:47;;;;;;;8.63;7.83;;;30.10;99.90;;;;;;4936162;29;20452;-79
2021/06/28 08:01:17;;;;;;;9.30;7.53;;;30.80;99.90;;;;;;4936145;29;20488;-79
2021/06/28 08:03:46;;;;;;;7.70;6.80;;;31.30;99.90;;;;;;4921449;29;20482;-80
2021/06/28 08:06:13;;;;;;;8.13;7.27;;;31.80;99.90;;;;;;4923195;29;20462;-77
2021/06/28 08:08:41;;;;;;;7.47;6.70;;;32.20;99.90;;;;;;4937467;29;20453;-89
2021/06/28 08:11:09;;;;;;;9.03;8.20;;;32.50;99.90;;;;;;4932979;29;20481;-88
2021/06/28 08:13:36;;;;;;;8.13;7.40;;;33.00;99.90;;;;;;4933141;29;20502;-85
2021/06/28 08:16:04;;;;;;;7.27;6.53;;;33.40;99.90;;;;;;4933398;29;20498;-86
2021/06/28 08:18:34;;;;;;;6.90;6.20;;;33.70;99.90;;;;;;4934629;29;20476;-87
2021/06/28 08:21:01;;;;;;;8.10;7.30;;;33.80;99.90;;;;;;4935037;29;20454;-86
2021/06/28 08:23:28;;;;;;;7.20;6.60;;;33.80;99.90;;;;;;4940190;29;20456;-87
2021/06/28 08:25:58;;;;;;;7.83;7.23;;;33.90;99.90;;;;;;4918339;29;20549;-87
2021/06/28 08:28:27;;;;;;;6.83;6.03;;;34.00;99.90;;;;;;4932433;29;20490;-85
2021/06/28 08:30:54;;;;;;;7.73;7.03;;;34.20;99.90;;;;;;4933155;29;20526;-86
2021/06/28 08:33:21;;;;;;;7.57;7.00;;;34.50;99.90;;;;;;4933915;29;20553;-88
2021/06/28 08:35:50;;;;;;;7.50;6.90;;;34.60;99.90;;;;;;4934323;29;20485;-85
2021/06/28 08:38:17;;;;;;;7.43;6.57;;;34.60;99.90;;;;;;4935065;29;20454;-87
2021/06/28 08:40:44;;;;;;;7.97;6.70;;;34.60;99.90;;;;;;4935247;29;20619;-87
2021/06/28 08:43:11;;;;;;;6.97;6.33;;;34.60;99.90;;;;;;4935290;29;20442;-86
2021/06/28 08:45:40;;;;;;;6.77;6.27;;;34.60;99.90;;;;;;4940140;29;20550;-88
2021/06/28 08:48:08;;;;;;;7.60;7.00;;;34.60;99.90;;;;;;4936057;29;20446;-87
2021/06/28 08:50:37;;;;;;;9.83;6.50;;;34.60;99.90;;;;;;4901164;29;20803;-84
2021/06/28 08:53:07;;;;;;;6.93;6.27;;;34.50;99.90;;;;;;4916786;29;20451;-86
2021/06/28 08:55:35;;;;;;;6.53;6.03;;;34.50;99.90;;;;;;4933352;29;20474;-86
2021/06/28 08:58:04;;;;;;;6.90;6.40;;;34.50;99.90;;;;;;4930620;29;20812;-84
2021/06/28 09:00:32;;;;;;;7.60;6.90;;;34.30;99.90;;;;;;4920578;29;20453;-84
2021/06/28 09:03:00;;;;;;;7.43;6.83;;;33.80;99.90;;;;;;4941287;29;20452;-84
2021/06/28 09:05:28;;;;;;;8.57;7.07;;;33.40;99.90;;;;;;4918941;29;20494;-83
2021/06/28 09:08:12;;;;;;;7.40;6.80;;;32.90;99.90;;;;;;4951878;29;20455;-84
2021/06/28 09:13:05;;;;;;;7.50;6.80;;;32.40;99.90;;;;;;4933275;29;20550;-84
2021/06/28 09:15:35;;;;;;;7.40;6.30;;;32.20;99.90;;;;;;4906880;29;20262;-85
2021/06/28 09:18:15;;;;;;;8.53;7.07;;;32.10;99.90;;;;;;4917957;29;20455;-83
2021/06/28 09:20:43;;;;;;;6.57;6.07;;;32.00;99.90;;;;;;4932831;29;20450;-85
2021/06/28 09:23:19;;;;;;;7.90;7.20;;;31.80;99.90;;;;;;4932271;29;20450;-86
2021/06/28 09:25:51;;;;;;;6.00;5.33;;;31.70;99.90;;;;;;4932511;29;20836;-84
2021/06/28 09:28:38;;;;;;;6.30;5.80;;;31.60;99.90;;;;;;4920255;29;20496;-83
2021/06/28 09:31:06;;;;;;;6.23;5.73;;;31.50;99.90;;;;;;4925705;29;20450;-83
2021/06/28 09:33:33;;;;;;;7.10;6.50;;;31.40;99.90;;;;;;4935612;29;20482;-83
2021/06/28 09:36:01;;;;;;;9.73;7.20;;;31.40;99.90;;;;;;4919572;29;20472;-83
2021/06/28 09:38:36;;;;;;;7.53;6.93;;;31.40;99.90;;;;;;4936247;29;20457;-84
2021/06/28 09:41:21;;;;;;;6.90;6.40;;;31.30;99.90;;;;;;4937293;29;20458;-85
2021/06/28 09:43:49;;;;;;;7.17;6.57;;;31.20;99.90;;;;;;4938948;29;20455;-82
2021/06/28 09:46:18;;;;;;;6.90;6.20;;;31.10;99.90;;;;;;4938131;29;20476;-82
2021/06/28 09:48:49;;;;;;;7.40;6.80;;;31.00;99.90;;;;;;4921552;29;20446;-82
2021/06/28 09:51:22;;;;;;;7.40;6.70;;;30.90;99.90;;;;;;4941053;29;20449;-82
2021/06/28 09:53:51;;;;;;;7.33;6.73;;;30.70;99.90;;;;;;4907445;29;20780;-81
2021/06/28 09:56:34;;;;;;;7.00;6.40;;;30.70;99.90;;;;;;4935716;29;20550;-83
2021/06/28 09:59:21;;;;;;;8.17;7.37;;;30.60;99.90;;;;;;4921035;29;20808;-84
2021/06/28 10:01:51;;;;;;;8.33;7.63;;;30.50;99.90;;;;;;4918828;29;20461;-88
2021/06/28 10:04:39;;;;;;;7.70;7.10;;;30.30;99.90;;;;;;4920311;29;20482;-83
2021/06/28 10:07:23;;;;;;;7.80;7.00;;;30.20;99.90;;;;;;4941650;29;20932;-84
2021/06/28 10:13:05;;;;;;;7.50;6.90;;;30.10;99.90;;;;;;5120043;27;20512;-80
2021/06/28 10:15:34;;;;;;;7.53;6.63;;;29.90;99.90;;;;;;5103313;28;20467;-83
2021/06/28 10:18:04;;;;;;;6.83;6.33;;;29.70;99.90;;;;;;5093033;28;20462;-83
2021/06/28 10:20:33;;;;;;;7.60;6.97;;;29.70;99.90;;;;;;5104569;28;20775;-84
2021/06/28 10:23:01;;;;;;;8.03;7.33;;;29.60;99.90;;;;;;5084357;28;20453;-87
2021/06/28 10:25:30;;;;;;;7.40;6.80;;;29.60;99.90;;;;;;5104931;28;20456;-82
2021/06/28 10:27:59;;;;;;;6.67;6.17;;;29.50;99.90;;;;;;5100084;28;20510;-79
2021/06/28 10:30:28;;;;;;;6.80;6.20;;;29.40;99.90;;;;;;5099308;28;20799;-79
2021/06/28 10:33:02;;;;;;;7.10;6.40;;;29.50;99.90;;;;;;5084554;28;20446;-85
2021/06/28 10:35:32;;;;;;;7.67;6.87;;;29.30;99.90;;;;;;5086089;28;20470;-85
2021/06/28 10:38:04;;;;;;;6.33;5.80;;;29.10;99.90;;;;;;5081819;28;20446;-84
2021/06/28 10:40:46;;;;;;;6.43;5.80;;;29.10;99.90;;;;;;5078834;28;20461;-81
2021/06/28 10:43:26;;;;;;;5.70;5.30;;;29.00;99.90;;;;;;5083640;28;20435;-82
2021/06/28 10:45:55;;;;;;;6.57;6.00;;;29.00;99.90;;;;;;5082423;28;20466;-79
2021/06/28 10:48:26;;;;;;;7.60;6.87;;;28.90;99.90;;;;;;5086463;28;20439;-82
2021/06/28 10:50:56;;;;;;;11.03;8.93;;;28.80;99.90;;;;;;5081422;28;20592;-82
2021/06/28 10:53:52;;;;;;;11.73;9.40;;;28.80;99.90;;;;;;5101641;28;20472;-79
2021/06/28 10:56:49;;;;;;;14.00;11.00;;;28.60;99.90;;;;;;5080528;28;20459;-81
2021/06/28 10:59:29;;;;;;;10.07;8.50;;;27.90;99.90;;;;;;5081001;28;20446;-79
2021/06/28 11:02:00;;;;;;;10.13;7.07;;;27.00;99.90;;;;;;5087048;28;20439;-79
2021/06/28 11:04:28;;;;;;;6.50;5.40;;;25.90;99.90;;;;;;5084754;28;20440;-78
2021/06/28 11:07:05;;;;;;;4.77;4.37;;;25.00;99.90;;;;;;5087105;28;20501;-78
2021/06/28 11:09:38;;;;;;;4.90;4.50;;;24.50;99.90;;;;;;5085814;28;20447;-80
2021/06/28 11:12:07;;;;;;;5.53;5.03;;;24.30;99.90;;;;;;5097403;28;20482;-79
2021/06/28 11:14:42;;;;;;;6.17;5.00;;;24.10;99.90;;;;;;5100871;28;20474;-81
2021/06/28 11:17:14;;;;;;;7.57;6.83;;;24.00;99.90;;;;;;5105824;28;20853;-79
2021/06/28 11:19:53;;;;;;;6.70;6.10;;;23.90;99.90;;;;;;5104780;28;20438;-80
2021/06/28 11:22:38;;;;;;;5.83;5.40;;;23.80;99.90;;;;;;5102374;28;20443;-81
2021/06/28 11:25:14;;;;;;;6.27;5.77;;;23.70;99.90;;;;;;5086096;28;20602;-80
2021/06/28 11:27:43;;;;;;;6.83;6.27;;;23.70;99.90;;;;;;5078348;28;20538;-80
2021/06/28 11:30:25;;;;;;;7.10;6.40;;;23.70;99.90;;;;;;5088208;28;20449;-79
2021/06/28 11:32:59;;;;;;;9.53;6.13;;;23.70;99.90;;;;;;5078848;28;20558;-79
2021/06/28 11:35:43;;;;;;;6.63;6.13;;;23.70;99.90;;;;;;5071704;28;20470;-79
2021/06/28 11:38:15;;;;;;;7.50;6.80;;;23.70;99.90;;;;;;5056362;28;21363;-80
2021/06/28 11:40:45;;;;;;;8.23;6.47;;;23.70;99.90;;;;;;5069500;28;20456;-79
2021/06/28 11:43:12;;;;;;;7.93;7.23;;;23.80;99.90;;;;;;5077091;28;20432;-78
2021/06/28 11:45:47;;;;;;;7.70;7.10;;;23.80;99.90;;;;;;5093712;28;20462;-81
2021/06/28 11:48:34;;;;;;;7.40;6.80;;;23.80;99.90;;;;;;5088663;28;20432;-80
2021/06/28 11:51:11;;;;;;;7.87;7.17;;;23.80;99.90;;;;;;5077253;28;20531;-82
2021/06/28 11:53:38;;;;;;;8.83;8.03;;;23.90;99.90;;;;;;5086002;28;20456;-82
2021/06/28 11:56:18;;;;;;;8.50;7.80;;;24.00;99.90;;;;;;5088168;28;20466;-85
2021/06/28 11:58:52;;;;;;;8.63;7.93;;;24.10;99.90;;;;;;5077864;28;21004;-83
2021/06/28 12:01:21;;;;;;;8.57;7.70;;;24.10;99.90;;;;;;5070853;28;20772;-83
2021/06/28 12:03:49;;;;;;;7.87;7.17;;;24.20;99.90;;;;;;5076838;28;20879;-83
2021/06/28 12:09:14;;;;;;;8.03;7.30;;;24.30;99.90;;;;;;4973873;28;20444;-83
2021/06/28 12:11:52;;;;;;;7.30;6.70;;;24.30;99.90;;;;;;4962498;28;20858;-80
2021/06/28 12:14:35;;;;;;;8.17;7.47;;;24.40;99.90;;;;;;4972957;28;20732;-81
2021/06/28 12:17:09;;;;;;;8.37;7.60;;;24.50;99.90;;;;;;4975095;28;20467;-80
2021/06/28 12:19:38;;;;;;;8.53;7.80;;;24.70;99.90;;;;;;4989174;28;20444;-83
2021/06/28 12:22:10;;;;;;;7.23;6.53;;;24.70;99.90;;;;;;4990101;28;20467;-84
2021/06/28 12:24:37;;;;;;;8.70;6.67;;;24.80;99.90;;;;;;4975225;28;20442;-84
2021/06/28 12:27:07;;;;;;;7.67;6.53;;;24.80;99.90;;;;;;5005304;28;20461;-82
2021/06/28 12:29:36;;;;;;;7.43;6.83;;;24.80;99.90;;;;;;5014391;28;20545;-83
2021/06/28 12:32:07;;;;;;;6.93;6.30;;;24.70;99.90;;;;;;5016758;28;20477;-80
2021/06/28 12:34:37;;;;;;;6.20;5.70;;;24.70;99.90;;;;;;5024347;28;20542;-82
2021/06/28 12:37:04;;;;;;;6.97;6.37;;;24.60;99.90;;;;;;5028230;28;20461;-84
2021/06/28 12:39:32;;;;;;;6.40;5.90;;;24.50;99.90;;;;;;5039736;28;20446;-82
2021/06/28 12:42:15;;;;;;;6.37;5.77;;;24.50;99.90;;;;;;5072724;28;20442;-86
2021/06/28 12:44:42;;;;;;;7.00;6.40;;;24.50;99.90;;;;;;5070642;28;20460;-81
2021/06/28 12:47:12;;;;;;;6.33;5.83;;;24.40;99.90;;;;;;5072773;28;20441;-82
2021/06/28 12:49:42;;;;;;;7.33;6.73;;;24.30;99.90;;;;;;5072501;28;20440;-84
2021/06/28 12:52:32;;;;;;;7.63;7.03;;;24.30;99.90;;;;;;5072388;28;20522;-85
2021/06/28 12:55:02;;;;;;;7.73;7.00;;;24.30;99.90;;;;;;5083850;28;20530;-85